Main page
METAR-TAF:

METAR-TAF

Airports :

Urmia Airport

Urmia, Iran

latitude: 37-32N, longitude: 045-05E, elevation: 1297 m

Current weather observation

The report was made 16 minutes ago, at 08:00 UTC
Wind 2 kt from the North/Northwest
Temperature 2°C
Humidity 51%
Pressure 1020 hPa
Visibility 10 km or more
Few clouds at a height of 4000 ft

METAR: OITR 250800Z 34002KT 9999 FEW040 02/M07 Q1020

Time: 11:46 (08:16 UTC)

Forecast

The report was made 2 hours and 46 minutes ago, at 05:30 UTC
Forecast valid from 25 at 06 UTC to 26 at 12 UTC
Wind 6 kt from the East
Visibility: 7000 m
Scattered clouds at a height of 3000 ft
Becoming
from 25 at 16 UTC to 25 at 18 UTC
Wind 6 kt from the West
Visibility: 3000 m
Becoming
from 26 at 04 UTC to 26 at 06 UTC
Wind 6 kt from the East
Visibility: 7000 m

TAF: OITR 250530Z 2506/2612 09006KT 7000 SCT030 BECMG 2516/2518 28006KT 3000 BR/HZ BECMG 2604/2606 09006KT 7000

Weather observations and forecasts of more than 4000 airports (METAR and TAF reports).

The available stations are represented by yellow and red dots on the map.

Hover mouse over dot to see the name of the station.

Then click to see weather observations and forecasts.

To change the map : click on the green buttons with a black cross to zoom in, on the green button with a dash to zoom out, or on the green arrows for adjacent maps.


METAR-TAF: